This is the latest recevied weather packets stored in our database for station/object S54Z-11. If no packets are shown the sender has not sent any weather packets the latest 10 day(s).
| Time | Temp. | Humidity | Pressure | Rain* | Wind** | Luminosity | Snow |
|---|---|---|---|---|---|---|---|
| 1778184583 | 10.56° C | 93% | 1018.9 hPa | - | - | - | - |
| 1778183683 | 11.11° C | 89% | 1019 hPa | - | - | - | - |
| 1778182790 | 11.11° C | 81% | 1018.5 hPa | - | - | - | - |
| 1778181890 | 13.33° C | 64% | 1018.1 hPa | - | - | - | - |
| 1778180989 | 13.89° C | 62% | 1017.3 hPa | - | - | - | - |
| 1778180089 | 14.44° C | 66% | 1016.7 hPa | - | - | - | - |
| 1778178292 | 14.44° C | 79% | 1015.2 hPa | - | - | - | - |
| 1778177388 | 14.44° C | 77% | 1015.1 hPa | - | - | - | - |
| 1778176485 | 15° C | 75% | 1014.8 hPa | - | - | - | - |
| 1778175585 | 15° C | 73% | 1014.5 hPa | - | - | - | - |
| 1778174685 | 15.56° C | 71% | 1014.5 hPa | - | - | - | - |
| 1778173785 | 15.56° C | 71% | 1014.5 hPa | - | - | - | - |
| 1778172895 | 16.11° C | 71% | 1014.5 hPa | - | - | - | - |
| 1778171985 | 16.11° C | 70% | 1014.6 hPa | - | - | - | - |
| 1778171085 | 16.67° C | 70% | 1014.5 hPa | - | - | - | - |
| 1778170185 | 16.67° C | 68% | 1014.1 hPa | - | - | - | - |
| 1778169285 | 16.67° C | 67% | 1014.2 hPa | - | - | - | - |
| 1778168385 | 17.22° C | 66% | 1014.4 hPa | - | - | - | - |
| 1778167484 | 17.22° C | 64% | 1014.3 hPa | - | - | - | - |
| 1778166595 | 17.78° C | 65% | 1014.4 hPa | - | - | - | - |
| 1778165684 | 17.22° C | 68% | 1014.3 hPa | - | - | - | - |
| 1778164785 | 17.22° C | 68% | 1014.3 hPa | - | - | - | - |
| 1778163884 | 17.78° C | 68% | 1014.4 hPa | - | - | - | - |
| 1778162984 | 17.22° C | 69% | 1014.7 hPa | - | - | - | - |
| 1778162084 | 17.22° C | 67% | 1014.7 hPa | - | - | - | - |
* Rain since midnight (hover to see other rain measurements)
** Current wind speed in m/s (hover to see current wind gust speed)